Aktualne dane pomiarowe

Uwaga, wersja testowa! Automatyczne pobieranie danych za pomocą narzędzi lub skryptów to umożliwiających jest zabronione.

Dane meteo z obszaru Polski uzyskane na podstawie depesz SYNOP pobieranych co godzinę z NWS. Najedź myszką na symbol przedstawiony w tabeli, aby uzyskać informacje co do jego znaczenia. Prosimy pamiętać, że to testowa wersja strony, która jeszcze nie jest ukończona. Stworzono również jest krótki FAQ dotyczący korzystania z tej podstrony Anomalie temperatury w chwili obecnej odniesione są do okresu referencyjnego 1951-2016. Okres ten będzie później zmieniony na 1981-2010. Kliknij ikonę aby pobrać plik CSV. Kliknij ikonę aby wygenerować mapę synoptyczną dla danego terminu.

Wybierz Datę:    

        

Zamość (12595)

Dane terminowe dla wybranej stacji. Kliknij datę, aby otrzymać dane z tego terminu dla wszystkich stacji.

TemperaturaZachmurzenieWiatrCiśnienieOpadyPogoda
 Data t td wb tx tn tg rh  Nt Nl Cl Cm Ch ws wd g1 g2 wx mslp ppp ch 24h 12h t ww ww w1 w2  
2019-06-24 23:00:00 17.2 15.5 16.0--- 9020.0--1wx---1026.51000.0 0.7---------
2019-06-24 22:00:00 15.7 14.6 14.9--- 9314.0--1wx--11026.71000.0 1.3---------
2019-06-24 21:00:00 17.1 16.1 16.4--- 9420.0--1wx--11026.4 999.9 1.6---------
2019-06-24 20:00:00 18.0 16.0 16.6--- 8820.0--1wx---1025.7 999.3 1.4---wx-----
2019-06-24 19:00:00 21.8 16.1 18.0--- 7020.0--1wx--11024.8 998.7 0.9---------
2019-06-24 18:00:00 23.2 16.3 18.6 24.8 18.9- 6520.0wxwxwx2wx--21024.2 998.3 0.2- 0.012------
2019-06-24 17:00:00 24.2 16.5 19.1--- 6220.0wxwxwxwx4wx--41023.7 997.9 -0.2---------
2019-06-24 16:00:00 24.0 16.0 18.7--- 6120.0wxwxwx3wx--31023.6 997.8 -0.3---------
2019-06-24 15:00:00 24.0 16.5 19.0--- 6320.0wxwxwx3wx--31023.9 998.1 -0.1---------
2019-06-24 14:00:00 24.2 16.2 18.9--- 6120.0wxwxwx5wx---1023.9 998.1 0.0---------
2019-06-24 13:00:00 24.3 17.5 19.7--- 6620.0wxwxwx5wx---1023.9 998.1 0.1---------
2019-06-24 12:00:00 23.1 16.6 18.7--- 6720.0wxwxwx4wx--41024.1 998.2 0.6- 0.06------
2019-06-24 11:00:00 22.7 16.7 18.7--- 6920.0wxwxwx4wx--41024.1 998.1 0.8---------
2019-06-24 10:00:00 21.5 16.5 18.1--- 7320.0wxwxwx4wx--41024.1 998.0 0.9---------
2019-06-24 09:00:00 20.4 15.8 17.3--- 7520.0wxwxwx5wx--51023.8 997.6 0.7---------
2019-06-24 08:00:00 20.1 15.3 16.9--- 7420.0wxwxwx6wx---1023.5 997.3 0.4---------
2019-06-24 07:00:00 19.5 15.4 16.7--- 7720.0wxwxwx7wx--71023.3 997.1 0.6---------
2019-06-24 06:00:00 19.1 16.3 17.1 22.1 14.7 12 8420.0wxwxwxwx5wx--51023.2 996.9 1.1- 0.012wx-----
2019-06-24 05:00:00 17.3 15.8 16.2--- 9120.0--4wx--41023.3 996.9 1.2---------
2019-06-24 04:00:00 16.9 15.8 16.1--- 9320.0--4wx--41022.9 996.5 1.0---------
2019-06-24 03:00:00 15.3 15.0 15.1--- 988.0--3wx--31022.4 995.8 0.7---wx-----
2019-06-24 02:00:00 15.3 14.8 14.9--- 979.0--1wx--11022.3 995.7 0.6---wx-----
2019-06-24 01:00:00 16.2 15.2 15.5--- 9420.0--1wx--11022.0 995.5 0.6---------
2019-06-24 00:00:00 16.6 15.1 15.5--- 9120.0--2wx--21021.5 995.1 0.9- 0.06------
2019-06-23 23:00:00 17.6 15.6 16.2--- 8820.0--1wx--11021.4 995.1 1.0---------
2019-06-23 22:00:00 18.8 16.2 17.0--- 8520.0--2wx---1021.1 994.9 0.7---------
2019-06-23 21:00:00 20.0 16.4 17.5--- 8020.0--3wx--31020.3 994.2 0.7---------
2019-06-23 20:00:00 21.1 17.1 18.3--- 7820.0--3wx--31020.1 994.1 1.3---------
2019-06-23 19:00:00 21.3 17.3 18.5--- 782.2--2wx--21020.2 994.2 1.8---wx-----
2019-06-23 18:00:00 22.0 17.1 18.6 25.4 18.8- 7420.0wxwxwxwx3wx-1131019.4 993.5 1.0- 0.012------
2019-06-23 17:00:00 23.1 16.6 18.7--- 6720.0wxwxwxwxwx5wx--51018.6 992.8 0.1---------
2019-06-23 16:00:00 24.0 17.0 19.3--- 6520.0wxwxwxwxwx4wx---1018.1 992.4 -0.6---------
2019-06-23 15:00:00 24.6 16.8 19.4--- 6220.0wxwxwxwxwx6wx-1161018.2 992.5 -0.6---------
2019-06-23 14:00:00 24.2 16.2 18.9--- 6120.0wxwxwxwx6wx--61018.4 992.7 -0.5---------
2019-06-23 13:00:00 24.4 16.6 19.2--- 6220.0wxwxwxwx6wx11--1018.7 993.0 -0.2---------
2019-06-23 12:00:00 24.6 15.8 18.9--- 5820.0wxwxwxwx7wx--71018.8 993.1 -0.1- 0.06------
2019-06-23 11:00:00 24.2 16.2 18.9--- 6120.0wxwxwxwx6wx--61018.9 993.2 0.1---------
2019-06-23 10:00:00 23.3 16.6 18.8--- 6620.0wxwxwxwx5wx--51019.0 993.2 -0.1---------
2019-06-23 09:00:00 22.8 16.1 18.3--- 6620.0wxwxwxwx5wx--51019.0 993.2 -0.2---------
2019-06-23 08:00:00 21.5 14.6 17.0--- 6520.0wxwxwxwx3wx--31019.0 993.1 -0.3---------
2019-06-23 07:00:00 20.1 13.3 15.7--- 6520.0wx-wx3wx---1019.4 993.3 0.4---------
2019-06-23 06:00:00 18.9 11.7 14.4 20.3 16.9 16 6320.0wxwxwxwx4wx--41019.6 993.4 0.5- 0.012wx-----
2019-06-23 05:00:00 18.4 11.5 14.1--- 6420.0--3wx--31019.6 993.4 0.5---------
2019-06-23 04:00:00 17.5 11.3 13.6--- 6720.0--3wx--31019.2 992.9 0.0---------
2019-06-23 03:00:00 16.9 11.4 13.4--- 7020.0--4wx--41019.3 992.9 -0.2---------
2019-06-23 02:00:00 17.7 11.3 13.7--- 6620.0--5wx---1019.2 992.9 0.0---------
2019-06-23 01:00:00 17.7 14.4 15.4--- 8120.0--3wx--31019.2 992.9 -0.1---------
2019-06-23 00:00:00 18.2 15.3 16.2--- 8320.0--2wx--21019.3 993.1 0.0- 0.06------
1.2 ms

 

Print Friendly, PDF & Email